Homer Airport

Current Flights

Arrivals
Number Arrival From Airline
 7H880 03:32 +11  Anchorage Ravn Alaska
 7H872 15:42  Anchorage Ravn Alaska
 7H874 18:27  Anchorage Ravn Alaska
 7H878 23:22  Anchorage Ravn Alaska
 7H876 03:17  Anchorage Ravn Alaska
 7H870 14:42  Anchorage Ravn Alaska
Info
Name: Homer Airport
Identifier:  HOM/PAHO
Local Time:  16. Jun 06:31
Flights per Day
7 flights
Distance: 186km (116mi)
Punctuality
84% (1 flights per day delayed)
Delay Average: 2 minutes
Current Weather
 12 C (Humidity: 87%)
  4kt (7km/h / 4mph) from 250°
  Broken clouds at 6,000 feet (1,828 meter)
  Overcast at 7,000 feet (2,133 meter)
  14km (9 mi.)
 Light/Moderate: Rain
 METAR PAHO 160553Z AUTO 25004KT 9SM -RA BKN060 OVC070 12/10 A2978 RMK AO2 SLP083 P0002 60002 T01220100 10144 20122 56007 TSNO

Current Delays

Departures
N/A
Arrivals
N/A

Destinations

Top Destinations
Airport Flights
per week
Seats
per week
  Anchorage (ANC) 34 941 4 134
  Kenai (ENA) 0 - 0 0

Airlines & Planes

Top Airlines
Airline Flights
per Day
Seats
per Day
  Era Alaska 3 134
  Empire Airlines 1 -
Top Plane Types
Model Flights Seats
Bombardier Dash 8-100 3.6/day 133/day 133.2
Cessna C208 1.3/day - 0
Bombardier Dash 8-400 0.0/day 1/day 1.2333333333333334